Main page
METAR-TAF:

METAR-TAF

Airports :

Hakodate Airport

Hakodate, Japan

latitude: 41-46N, longitude: 140-49E, elevation: 33 m

Current weather observation

The report was made 9 hours and 19 minutes ago, at 11:00 UTC
Wind 5 kt from the East/Northeast
Temperature -2°C
Humidity 54%
Pressure 1019 hPa
Visibility 10 km or more
Few clouds at a height of 3000 ft

METAR: RJCH 261100Z 07005KT 9999 FEW030 M02/M10 Q1019

Time: 05:19 (20:19 UTC)

Forecast

The report was made 3 hours and 10 minutes ago, at 17:09 UTC
Forecast valid from 26 at 18 UTC to 28 at 00 UTC
Wind 6 kt from the Northeast
Visibility 10 km or more
Few clouds at a height of 2000 ft
Scattered clouds at a height of 4000 ft
Becoming
from 27 at 01 UTC to 27 at 03 UTC
Wind 5 kt from the Southwest
Becoming
from 27 at 06 UTC to 27 at 09 UTC
Wind 4 kt from the North/Northeast

TAF: RJCH 261709Z 2618/2800 05006KT 9999 FEW020 SCT040 BECMG 2701/2703 22005KT BECMG 2706/2709 02004KT

Weather observations and forecasts of more than 4000 airports (METAR and TAF reports).

The available stations are represented by yellow and red dots on the map.

Hover mouse over dot to see the name of the station.

Then click to see weather observations and forecasts.

To change the map : click on the green buttons with a black cross to zoom in, on the green button with a dash to zoom out, or on the green arrows for adjacent maps.


METAR-TAF: